Time;durP1;ratioP1;P1;durP2;ratioP2;P2;SDS_P1;SDS_P2;PMS_P1;PMS_P2;Temp;Humidity;BMP_temperature;BMP_pressure;BME280_temperature;BME280_humidity;BME280_pressure;Samples;Min_cycle;Max_cycle;Signal;HPM_P1;HPM_P2
2021/11/14 00:38:02;;;;;;;29.80;16.30;;;;;;;13.29;55.14;101506.50;6031152;23;96122;-88
2021/11/14 00:41:11;;;;;;;30.98;16.85;;;;;;;13.41;54.45;101508.72;6034003;23;98536;-88
2021/11/14 00:51:30;;;;;;;35.25;20.10;;;;;;;13.75;53.09;101511.91;6074172;23;99991;-89
2021/11/14 00:54:18;;;;;;;38.28;20.20;;;;;;;13.72;53.10;101516.50;6089712;23;97225;-90
2021/11/14 00:56:59;;;;;;;34.42;19.67;;;;;;;13.77;53.21;101517.19;6091557;23;96280;-89
2021/11/14 01:04:46;;;;;;;29.27;17.73;;;;;;;13.26;54.91;101526.06;6076615;23;98908;-89
2021/11/14 01:07:17;;;;;;;34.50;18.33;;;;;;;13.62;53.97;101526.56;6090667;23;96485;-85
2021/11/14 01:14:57;;;;;;;41.47;22.67;;;;;;;13.15;54.12;101537.03;6062441;23;101233;-84
2021/11/14 01:17:32;;;;;;;37.38;20.58;;;;;;;13.42;53.45;101534.38;6092398;23;95848;-89
2021/11/14 01:20:02;;;;;;;33.70;19.20;;;;;;;13.32;53.11;101539.13;6092380;23;96450;-90
2021/11/14 01:22:41;;;;;;;30.33;18.60;;;;;;;13.51;52.81;101539.38;6064930;23;96688;-89
2021/11/14 01:33:06;;;;;;;31.90;17.08;;;;;;;13.52;52.59;101549.91;6029355;23;100255;-84
2021/11/14 01:35:48;;;;;;;28.45;17.38;;;;;;;13.63;52.08;101552.22;6092305;23;96973;-89
2021/11/14 01:38:17;;;;;;;34.10;18.45;;;;;;;13.64;51.62;101553.06;6093309;23;95868;-89
2021/11/14 01:43:52;;;;;;;30.83;18.75;;;;;;;12.80;54.50;101558.50;6091927;23;99342;-88
2021/11/14 01:54:11;;;;;;;34.80;19.55;;;;;;;12.69;54.26;101557.97;6021840;22;100061;-89
2021/11/14 02:01:55;;;;;;;32.75;18.40;;;;;;;12.99;54.30;101562.31;6090635;23;95943;-90
2021/11/14 02:04:22;;;;;;;32.15;18.55;;;;;;;13.24;53.43;101567.72;6091748;23;99212;-88
2021/11/14 02:06:50;;;;;;;30.92;18.15;;;;;;;13.46;53.00;101570.50;6091403;23;99058;-85
2021/11/14 02:09:18;;;;;;;31.50;17.77;;;;;;;13.59;52.15;101571.81;6092275;23;95936;-88
2021/11/14 02:11:45;;;;;;;30.15;17.48;;;;;;;13.83;51.59;101581.59;6091321;23;96620;-90
2021/11/14 02:14:12;;;;;;;34.95;17.60;;;;;;;13.75;52.33;101582.78;6090174;23;98197;-88
2021/11/14 02:16:42;;;;;;;33.17;19.13;;;;;;;13.63;51.18;101586.72;6061378;23;97724;-88
2021/11/14 02:19:10;;;;;;;30.63;18.50;;;;;;;13.44;51.62;101585.63;6088133;23;96511;-87
2021/11/14 02:21:42;;;;;;;31.13;18.38;;;;;;;13.44;51.87;101593.59;6066194;23;96454;-88
2021/11/14 02:24:10;;;;;;;31.90;19.35;;;;;;;13.41;52.14;101597.22;6091192;23;98840;-89
2021/11/14 02:26:37;;;;;;;30.73;18.05;;;;;;;13.60;51.80;101601.88;6091477;23;98828;-88
2021/11/14 02:29:05;;;;;;;32.35;18.25;;;;;;;13.69;51.64;101605.09;6090535;23;96170;-87
2021/11/14 02:31:34;;;;;;;32.63;18.65;;;;;;;13.63;51.04;101610.63;6088918;23;96423;-89
2021/11/14 02:34:01;;;;;;;36.58;19.35;;;;;;;13.65;51.18;101619.44;6085726;23;98567;-89
2021/11/14 02:36:28;;;;;;;29.90;17.98;;;;;;;13.51;51.41;101617.25;6086691;23;97002;-89
2021/11/14 02:38:56;;;;;;;30.40;18.02;;;;;;;13.54;50.91;101622.44;6083109;23;96432;-88
2021/11/14 02:41:26;;;;;;;34.15;19.25;;;;;;;13.51;51.36;101624.34;6083451;23;96838;-89
2021/11/14 02:46:35;;;;;;;33.38;18.85;;;;;;;13.71;51.00;101626.31;6088086;23;99662;-88
2021/11/14 02:49:02;;;;;;;28.23;17.35;;;;;;;13.72;50.90;101626.22;6090569;23;95736;-88
2021/11/14 02:51:32;;;;;;;30.67;18.95;;;;;;;13.66;51.25;101629.09;6061323;23;96687;-87
2021/11/14 02:54:03;;;;;;;31.55;18.38;;;;;;;13.54;50.92;101632.19;6085561;23;96893;-88
2021/11/14 02:56:31;;;;;;;30.88;17.95;;;;;;;12.99;52.25;101628.66;6083596;23;99418;-89
2021/11/14 02:59:01;;;;;;;31.90;19.13;;;;;;;12.91;53.30;101633.31;6052082;23;96625;-88
2021/11/14 03:01:32;;;;;;;34.67;19.15;;;;;;;13.19;52.66;101629.84;6051882;23;96595;-89
2021/11/14 03:04:01;;;;;;;31.48;18.70;;;;;;;13.18;52.57;101628.09;6045147;23;98111;-89
2021/11/14 03:06:30;;;;;;;34.20;19.90;;;;;;;13.06;51.73;101632.81;6047297;23;98889;-89
2021/11/14 03:08:58;;;;;;;31.27;19.08;;;;;;;12.95;52.09;101644.69;6047137;23;96858;-88
2021/11/14 03:11:30;;;;;;;33.95;19.48;;;;;;;12.83;53.23;101637.13;6047725;23;96579;-89
2021/11/14 03:14:05;;;;;;;35.20;19.65;;;;;;;12.65;53.75;101639.44;6047044;23;98061;-89
2021/11/14 03:16:34;;;;;;;38.65;20.73;;;;;;;12.37;54.82;101643.78;6055671;23;99820;-88
2021/11/14 03:19:14;;;;;;;36.63;19.90;;;;;;;12.65;53.93;101638.56;6064025;23;96435;-86
2021/11/14 03:21:45;;;;;;;31.27;19.75;;;;;;;12.64;53.74;101640.34;6064432;23;96096;-86
2021/11/14 03:24:13;;;;;;;36.38;20.77;;;;;;;12.28;54.36;101650.22;6062849;23;99524;-82
2021/11/14 03:26:43;;;;;;;35.63;21.17;;;;;;;12.22;54.67;101650.38;6063123;23;96330;-81
2021/11/14 03:34:22;;;;;;;33.05;20.33;;;;;;;12.12;55.29;101651.56;6009656;23;96279;-84
2021/11/14 03:36:54;;;;;;;34.25;19.30;;;;;;;12.20;54.85;101656.66;6035051;23;98188;-85
2021/11/14 03:39:23;;;;;;;38.78;20.33;;;;;;;12.30;54.61;101653.69;6034475;23;95834;-87
2021/11/14 03:41:54;;;;;;;32.65;18.90;;;;;;;12.69;53.67;101648.13;6034958;23;96034;-83
2021/11/14 03:44:21;;;;;;;37.60;20.48;;;;;;;12.78;52.69;101650.53;6034520;23;98797;-86
2021/11/14 03:46:50;;;;;;;35.05;19.92;;;;;;;13.06;52.08;101653.22;6009183;23;97927;-82
2021/11/14 03:49:17;;;;;;;33.53;20.10;;;;;;;13.03;52.14;101658.59;6033094;23;95827;-89
2021/11/14 03:51:44;;;;;;;33.42;19.67;;;;;;;13.29;50.95;101660.47;6032284;23;96187;-88
2021/11/14 03:54:12;;;;;;;35.13;20.17;;;;;;;12.76;52.45;101652.34;6027788;23;99315;-90
2021/11/14 03:56:42;;;;;;;38.30;20.15;;;;;;;12.60;52.88;101657.22;6027805;23;99399;-89
2021/11/14 03:59:14;;;;;;;41.45;20.88;;;;;;;12.73;52.91;101658.59;6027272;23;96406;-90
2021/11/14 04:01:42;;;;;;;37.90;20.77;;;;;;;12.59;53.39;101655.53;6029072;23;96434;-89
2021/11/14 04:04:08;;;;;;;34.63;20.33;;;;;;;12.70;52.85;101661.38;6005188;23;99540;-89
2021/11/14 04:06:35;;;;;;;37.78;20.35;;;;;;;12.31;53.91;101666.03;6029060;23;99878;-89
2021/11/14 04:09:09;;;;;;;38.40;20.85;;;;;;;12.01;54.69;101661.59;6025088;23;96259;-89
2021/11/14 04:11:37;;;;;;;36.90;20.00;;;;;;;12.07;55.17;101661.41;5978415;23;96046;-90
2021/11/14 04:14:03;;;;;;;37.15;20.60;;;;;;;12.20;54.61;101665.47;6022093;23;96943;-90
2021/11/14 04:16:32;;;;;;;37.25;19.83;;;;;;;12.51;53.91;101667.25;6003063;23;97985;-89
2021/11/14 04:18:59;;;;;;;33.10;20.27;;;;;;;12.25;53.58;101678.59;6029718;23;96611;-87
2021/11/14 04:21:28;;;;;;;35.25;20.48;;;;;;;12.08;54.82;101667.59;6017598;23;96807;-90
2021/11/14 04:23:55;;;;;;;36.13;19.88;;;;;;;12.46;53.64;101671.81;6013379;23;100701;-88
2021/11/14 04:26:26;;;;;;;35.70;19.77;;;;;;;12.56;53.92;101670.63;6013906;23;99726;-89
2021/11/14 04:28:54;;;;;;;35.78;20.38;;;;;;;12.71;53.25;101676.38;6014271;23;96596;-89
2021/11/14 04:31:21;;;;;;;35.78;20.63;;;;;;;12.42;53.68;101680.75;6019772;23;96600;-90
2021/11/14 04:33:53;;;;;;;40.42;21.13;;;;;;;12.50;53.15;101687.59;6013672;23;99032;-91
2021/11/14 04:36:19;;;;;;;38.85;20.55;;;;;;;12.62;53.22;101675.75;6014387;23;100338;-90
2021/11/14 04:38:47;;;;;;;35.75;19.27;;;;;;;12.70;53.16;101679.94;6012454;23;96537;-91
2021/11/14 04:41:14;;;;;;;36.83;21.05;;;;;;;12.46;54.05;101693.03;6015679;23;97193;-90
2021/11/14 04:43:41;;;;;;;37.05;21.20;;;;;;;12.08;54.68;101694.94;6017990;23;100624;-90
2021/11/14 04:48:51;;;;;;;33.75;19.83;;;;;;;12.38;54.15;101696.75;6006279;23;96257;-88
2021/11/14 04:51:18;;;;;;;40.78;20.90;;;;;;;12.27;54.19;101695.31;6028299;23;96545;-89
2021/11/14 04:53:45;;;;;;;37.53;21.02;;;;;;;12.47;53.93;101700.06;6027784;23;100436;-89
2021/11/14 04:56:13;;;;;;;36.05;20.75;;;;;;;12.65;53.26;101708.38;6031195;23;99416;-90
2021/11/14 04:58:41;;;;;;;34.50;19.17;;;;;;;12.69;52.72;101709.13;6030511;23;96567;-89
2021/11/14 05:01:10;;;;;;;38.10;20.95;;;;;;;12.46;53.49;101707.16;6032184;23;96413;-90
2021/11/14 05:03:37;;;;;;;36.20;20.85;;;;;;;12.55;53.31;101712.19;6030993;23;99479;-89
2021/11/14 05:06:08;;;;;;;37.78;19.92;;;;;;;12.73;53.08;101710.81;6006802;23;97437;-90
2021/11/14 05:08:36;;;;;;;35.75;19.85;;;;;;;12.88;52.35;101715.63;6033968;23;96351;-89
2021/11/14 05:11:04;;;;;;;37.28;20.33;;;;;;;12.73;52.56;101718.75;6033856;23;96176;-88
2021/11/14 05:13:35;;;;;;;37.17;19.98;;;;;;;12.58;52.40;101722.72;6032967;23;98829;-90
2021/11/14 05:16:02;;;;;;;38.88;21.60;;;;;;;12.66;52.44;101731.31;6034285;23;96747;-88
2021/11/14 05:18:29;;;;;;;38.00;20.33;;;;;;;12.21;53.57;101740.50;6030410;23;95757;-89
2021/11/14 05:20:58;;;;;;;35.92;21.40;;;;;;;11.99;54.62;101740.22;6027344;23;96530;-91
2021/11/14 05:23:26;;;;;;;39.33;21.67;;;;;;;12.07;54.83;101746.19;5999802;23;98001;-88
2021/11/14 05:25:56;;;;;;;39.25;21.52;;;;;;;12.10;54.16;101751.41;6025038;23;100066;-87
2021/11/14 05:28:25;;;;;;;41.53;20.98;;;;;;;12.16;54.39;101750.38;6035230;23;96550;-85
2021/11/14 05:30:55;;;;;;;38.35;20.33;;;;;;;11.95;54.70;101763.25;6035279;23;97424;-82
2021/11/14 05:33:22;;;;;;;41.95;22.27;;;;;;;11.76;55.59;101761.09;6034186;23;99580;-91
2021/11/14 05:35:51;;;;;;;35.08;20.13;;;;;;;11.53;55.75;101757.19;6002492;23;96847;-92
2021/11/14 05:38:20;;;;;;;39.70;20.92;;;;;;;11.64;56.03;101766.66;6034226;23;96552;-91
2021/11/14 05:40:50;;;;;;;38.65;20.83;;;;;;;11.86;55.43;101774.09;6034585;23;96152;-90
2021/11/14 05:56:16;;;;;;;40.28;20.83;;;;;;;11.77;55.51;101805.19;6010038;23;99739;-87
2021/11/14 05:58:47;;;;;;;36.80;20.70;;;;;;;11.78;55.48;101807.81;5939785;23;100628;-88
2021/11/14 06:01:17;;;;;;;40.95;20.73;;;;;;;11.90;54.71;101810.19;6066070;23;95988;-89
2021/11/14 06:03:54;;;;;;;41.58;21.98;;;;;;;11.65;55.74;101819.56;6092417;23;99635;-90
2021/11/14 06:06:21;;;;;;;38.05;20.58;;;;;;;11.90;54.67;101819.91;6092227;23;96631;-90
2021/11/14 06:08:49;;;;;;;36.30;20.60;;;;;;;11.94;54.92;101819.81;6066992;23;96227;-90
2021/11/14 06:11:18;;;;;;;38.17;20.38;;;;;;;11.87;54.98;101825.28;6090326;23;96591;-89
2021/11/14 06:13:49;;;;;;;43.35;22.33;;;;;;;11.91;54.83;101829.59;6074987;23;98272;-89
2021/11/14 06:16:16;;;;;;;37.58;21.35;;;;;;;11.89;54.54;101837.56;6048317;23;97981;-89
2021/11/14 06:18:45;;;;;;;42.13;21.48;;;;;;;11.84;54.35;101838.56;6050376;23;96582;-89
2021/11/14 06:34:29;;;;;;;42.87;21.40;;;;;;;11.14;55.13;101882.44;5041812;27;97533;-88
2021/11/14 06:36:56;;;;;;;39.50;21.38;;;;;;;10.96;55.36;101882.78;5040509;28;97226;-88
2021/11/14 06:39:23;;;;;;;39.17;21.00;;;;;;;10.98;55.85;101891.56;5040212;27;98046;-88
2021/11/14 06:41:51;;;;;;;39.40;21.45;;;;;;;10.92;56.22;101886.38;5032412;28;98533;-89
2021/11/14 06:44:19;;;;;;;37.55;20.83;;;;;;;10.91;56.08;101889.91;5020851;28;96874;-89
2021/11/14 06:46:46;;;;;;;42.92;21.45;;;;;;;10.76;55.91;101891.94;5040638;28;96771;-90
2021/11/14 06:49:14;;;;;;;43.47;21.30;;;;;;;10.72;56.04;101900.84;5031506;27;98092;-90
2021/11/14 06:51:45;;;;;;;40.10;22.48;;;;;;;10.91;56.34;101911.94;5045441;28;100111;-88
2021/11/14 06:54:13;;;;;;;43.55;23.30;;;;;;;10.78;56.06;101906.00;5047280;27;97070;-88
2021/11/14 06:56:40;;;;;;;47.38;21.98;;;;;;;10.53;56.64;101917.91;5044261;27;96067;-88
2021/11/14 06:59:07;;;;;;;38.60;21.73;;;;;;;10.68;56.71;101925.59;5058753;27;99473;-86
2021/11/14 07:01:34;;;;;;;42.33;22.15;;;;;;;10.98;55.34;101925.94;5055384;27;100348;-87
2021/11/14 07:04:03;;;;;;;45.35;21.90;;;;;;;10.55;55.77;101934.63;5048823;27;96059;-89
2021/11/14 07:06:31;;;;;;;42.75;22.30;;;;;;;10.61;56.37;101931.88;5055268;27;96303;-89
2021/11/14 07:11:43;;;;;;;44.95;22.08;;;;;;;10.28;58.04;101935.94;5056801;27;96374;-89
2021/11/14 07:14:10;;;;;;;48.05;22.98;;;;;;;10.21;56.96;101936.06;5068204;27;95888;-90
2021/11/14 07:16:50;;;;;;;49.38;22.92;;;;;;;10.21;57.76;101947.50;5177933;22;96869;-89
2021/11/14 07:19:18;;;;;;;48.92;23.90;;;;;;;10.55;57.12;101939.91;5030285;28;98675;-91
2021/11/14 07:21:46;;;;;;;45.80;23.90;;;;;;;10.82;56.20;101945.63;5033173;28;96376;-90
2021/11/14 07:24:16;;;;;;;53.30;26.25;;;;;;;10.88;55.77;101929.66;5033524;28;96268;-89
2021/11/14 07:26:44;;;;;;;51.28;26.25;;;;;;;11.04;55.43;101952.25;5033154;28;96819;-89
2021/11/14 07:31:56;;;;;;;51.80;26.17;;;;;;;11.40;53.80;101953.34;5034124;28;96820;-91
2021/11/14 07:34:24;;;;;;;59.55;26.98;;;;;;;11.49;53.28;101959.31;5025120;28;96586;-89
2021/11/14 07:36:50;;;;;;;55.40;26.48;;;;;;;11.07;54.79;101968.09;5019213;28;96468;-89
2021/11/14 07:39:20;;;;;;;55.58;26.15;;;;;;;11.04;54.58;101966.38;5011288;28;101267;-87
2021/11/14 07:41:47;;;;;;;55.85;27.00;;;;;;;10.94;55.30;101967.44;5016200;28;97725;-88
2021/11/14 07:44:14;;;;;;;62.80;28.52;;;;;;;10.71;56.07;101965.19;4999723;28;97106;-89
2021/11/14 07:46:47;;;;;;;59.42;28.75;;;;;;;10.56;56.96;101962.81;5001613;28;96781;-91
2021/11/14 07:49:15;;;;;;;62.83;28.08;;;;;;;10.14;57.38;101973.97;5002151;28;99768;-90
2021/11/14 07:51:42;;;;;;;64.95;29.80;;;;;;;10.60;57.24;101961.84;5003450;28;101142;-90
2021/11/14 07:54:12;;;;;;;60.75;28.42;;;;;;;10.76;55.95;101960.69;4998356;28;96818;-90
2021/11/14 07:56:41;;;;;;;66.75;29.10;;;;;;;10.84;55.87;101963.19;5004905;28;96818;-88
2021/11/14 07:59:10;;;;;;;65.65;29.10;;;;;;;11.23;55.38;101973.94;5004655;28;100657;-88
2021/11/14 08:01:37;;;;;;;63.70;29.23;;;;;;;11.39;53.31;101981.59;4998016;28;98931;-89
2021/11/14 08:04:05;;;;;;;61.53;29.60;;;;;;;11.47;54.07;101976.16;5001830;28;96840;-87
2021/11/14 08:06:33;;;;;;;65.55;30.15;;;;;;;11.87;52.44;101984.19;5003096;28;96818;-87
2021/11/14 08:09:01;;;;;;;67.45;31.35;;;;;;;11.66;52.52;101984.59;5002289;28;99964;-88
2021/11/14 08:11:29;;;;;;;67.30;30.45;;;;;;;11.91;52.97;101988.50;5013411;28;99314;-90
2021/11/14 08:13:58;;;;;;;67.00;31.10;;;;;;;12.08;51.73;101996.09;5015255;28;96700;-89
2021/11/14 08:16:24;;;;;;;63.47;30.52;;;;;;;12.08;51.72;101990.81;5020838;28;95942;-87
2021/11/14 08:18:51;;;;;;;69.00;30.98;;;;;;;11.80;52.93;101999.34;5018501;28;100001;-91
2021/11/14 08:21:19;;;;;;;67.47;31.65;;;;;;;11.61;53.02;101992.63;5017743;28;97494;-92
2021/11/14 08:23:45;;;;;;;75.55;33.08;;;;;;;11.18;54.51;101989.91;5016006;28;96574;-88
2021/11/14 08:26:11;;;;;;;76.05;33.00;;;;;;;11.22;54.74;101986.34;5008802;28;96767;-89
2021/11/14 08:28:38;;;;;;;72.95;32.95;;;;;;;11.50;54.43;101986.66;4996055;28;97779;-88
2021/11/14 08:31:15;;;;;;;71.70;32.55;;;;;;;11.37;54.92;101995.75;4993719;28;98999;-87
2021/11/14 08:33:42;;;;;;;72.45;33.15;;;;;;;11.72;53.43;102010.94;5009394;28;96603;-84
2021/11/14 08:36:11;;;;;;;66.65;31.83;;;;;;;12.06;53.38;102005.84;5017455;28;96657;-88
2021/11/14 08:38:39;;;;;;;66.70;31.90;;;;;;;11.98;52.81;102013.97;5018616;28;98990;-88
2021/11/14 08:41:08;;;;;;;68.93;31.90;;;;;;;12.40;52.40;102013.94;5017220;28;100598;-88
2021/11/14 08:43:37;;;;;;;68.72;31.85;;;;;;;12.64;51.22;102005.38;5018988;28;96726;-88
2021/11/14 08:46:10;;;;;;;69.72;32.80;;;;;;;12.54;49.92;102009.16;5018892;28;96387;-91
2021/11/14 08:48:48;;;;;;;71.97;32.92;;;;;;;12.08;52.01;102007.53;5016631;28;99555;-90
2021/11/14 08:51:17;;;;;;;74.88;33.85;;;;;;;12.14;52.51;102023.31;5011148;28;98437;-92
2021/11/14 08:53:45;;;;;;;75.18;33.58;;;;;;;12.16;52.41;102037.41;5012662;28;96572;-90
2021/11/14 08:56:11;;;;;;;78.60;34.45;;;;;;;12.45;51.17;102035.91;5005278;28;98198;-88
2021/11/14 08:58:39;;;;;;;81.28;33.42;;;;;;;11.96;53.00;102047.53;5012716;28;99621;-88
2021/11/14 09:01:10;;;;;;;72.75;34.90;;;;;;;11.30;54.54;102049.69;5012830;28;99482;-90
2021/11/14 09:04:06;;;;;;;73.35;34.95;;;;;;;11.54;53.53;102058.06;5011592;28;96732;-89
2021/11/14 09:06:45;;;;;;;81.80;35.13;;;;;;;11.88;53.94;102057.44;5028069;28;95981;-88
2021/11/14 09:09:13;;;;;;;75.30;34.25;;;;;;;12.31;52.79;102062.72;5001266;28;98611;-93
2021/11/14 09:11:41;;;;;;;81.22;36.10;;;;;;;12.29;52.42;102057.44;5006287;28;99626;-91
2021/11/14 09:14:13;;;;;;;77.22;34.83;;;;;;;12.72;51.19;102065.31;5006184;28;97234;-91
2021/11/14 09:16:43;;;;;;;78.88;35.97;;;;;;;12.87;50.41;102066.69;5008735;28;96683;-90
2021/11/14 09:19:10;;;;;;;69.78;35.40;;;;;;;12.65;50.75;102079.63;5005370;28;98153;-90
2021/11/14 09:21:38;;;;;;;80.35;36.53;;;;;;;12.36;51.86;102074.94;5009424;28;96643;-91
2021/11/14 09:24:07;;;;;;;83.95;37.33;;;;;;;12.15;52.96;102075.41;5019165;28;96535;-90
2021/11/14 09:26:33;;;;;;;83.10;37.80;;;;;;;12.41;51.95;102089.88;5018575;28;96450;-90
2021/11/14 09:29:06;;;;;;;80.28;37.63;;;;;;;12.61;51.85;102091.19;5027432;28;97652;-90
2021/11/14 09:31:34;;;;;;;85.95;38.92;;;;;;;12.26;52.27;102094.63;5011411;28;98801;-90
2021/11/14 09:34:10;;;;;;;86.35;38.97;;;;;;;12.24;52.85;102099.06;5009469;28;96669;-89
2021/11/14 09:36:38;;;;;;;87.43;39.57;;;;;;;12.23;53.25;102097.31;5009295;28;96602;-90
2021/11/14 09:39:09;;;;;;;80.72;37.97;;;;;;;11.95;53.75;102101.44;5005180;28;97151;-87
2021/11/14 09:41:48;;;;;;;89.95;40.22;;;;;;;12.07;52.83;102111.81;5002361;28;97890;-89
2021/11/14 09:44:21;;;;;;;81.00;38.28;;;;;;;11.86;53.80;102110.44;5007053;28;96604;-89
2021/11/14 09:46:57;;;;;;;94.30;43.33;;;;;;;11.86;53.87;102113.09;4998082;28;97158;-88
2021/11/14 09:52:12;;;;;;;96.90;40.60;;;;;;;12.47;52.34;102116.28;5010949;28;96621;-91
2021/11/14 09:54:41;;;;;;;90.35;41.88;;;;;;;12.87;51.37;102111.78;5016500;28;95933;-89
2021/11/14 09:57:12;;;;;;;86.30;39.40;;;;;;;12.94;50.89;102120.47;5013076;28;96726;-90
2021/11/14 09:59:42;;;;;;;89.88;40.00;;;;;;;13.19;50.77;102123.47;5011434;28;97084;-89
2021/11/14 10:04:56;;;;;;;84.45;39.10;;;;;;;13.55;49.11;102123.41;5012395;28;97158;-87
2021/11/14 10:07:28;;;;;;;90.80;40.58;;;;;;;13.54;48.31;102126.09;5017206;28;96788;-87
2021/11/14 10:09:57;;;;;;;86.90;39.92;;;;;;;13.18;50.16;102132.34;5014007;28;99393;-89
2021/11/14 10:12:27;;;;;;;88.00;41.38;;;;;;;13.44;49.48;102137.88;5016831;28;98178;-87
2021/11/14 10:15:08;;;;;;;91.30;42.30;;;;;;;13.55;49.00;102139.34;5016723;28;96330;-84
2021/11/14 10:17:37;;;;;;;85.80;41.90;;;;;;;13.25;49.04;102141.91;5018032;28;95982;-87
2021/11/14 10:20:16;;;;;;;94.20;41.08;;;;;;;13.03;49.66;102146.81;5017302;28;98127;-88
2021/11/14 10:22:47;;;;;;;88.65;42.60;;;;;;;13.21;49.70;102145.53;5010056;28;98099;-89
2021/11/14 10:25:16;;;;;;;91.50;41.53;;;;;;;13.40;49.61;102149.47;5015730;28;96576;-88
2021/11/14 10:27:49;;;;;;;90.22;42.30;;;;;;;13.71;48.38;102138.94;5017757;28;96614;-88
2021/11/14 10:30:17;;;;;;;90.22;41.45;;;;;;;13.32;49.76;102157.66;5017295;28;96880;-89
2021/11/14 10:32:47;;;;;;;89.43;41.70;;;;;;;13.54;49.86;102150.00;5018019;28;98529;-86
2021/11/14 10:35:15;;;;;;;88.00;42.20;;;;;;;13.21;50.00;102153.50;5015304;28;96676;-87
2021/11/14 10:37:44;;;;;;;95.90;43.10;;;;;;;12.99;51.10;102151.34;5016149;28;96028;-89
2021/11/14 10:40:17;;;;;;;94.85;42.55;;;;;;;13.27;50.00;102150.69;5013897;28;98544;-88
2021/11/14 10:42:50;;;;;;;92.07;41.90;;;;;;;13.33;49.97;102156.72;5002391;28;99140;-87
2021/11/14 10:48:07;;;;;;;98.60;45.88;;;;;;;12.97;50.83;102150.47;5010129;28;98385;-89
2021/11/14 10:50:44;;;;;;;93.85;42.63;;;;;;;13.27;49.85;102150.69;5010572;28;99977;-88
2021/11/14 10:56:03;;;;;;;92.40;41.60;;;;;;;13.46;49.88;102149.31;5010166;28;96739;-92
2021/11/14 10:58:37;;;;;;;94.15;42.72;;;;;;;13.41;49.02;102157.41;5001176;28;96478;-91
2021/11/14 11:01:08;;;;;;;90.18;41.50;;;;;;;13.00;51.14;102157.47;5007759;28;99140;-88
2021/11/14 11:09:17;;;;;;;100.03;44.03;;;;;;;13.33;50.78;102158.50;5033529;28;97455;-86
2021/11/14 11:11:47;;;;;;;93.60;42.78;;;;;;;12.72;51.24;102163.44;5015905;28;97544;-87
2021/11/14 11:17:08;;;;;;;99.00;45.33;;;;;;;12.65;52.27;102160.94;5038268;28;96398;-90
2021/11/14 11:19:37;;;;;;;95.53;43.85;;;;;;;12.93;52.05;102154.09;5022570;28;96049;-88
2021/11/14 11:22:08;;;;;;;100.20;44.78;;;;;;;13.36;49.92;102159.31;5016973;28;97991;-88
2021/11/14 11:24:35;;;;;;;97.15;44.05;;;;;;;13.38;49.75;102177.88;5084948;22;98034;-89
2021/11/14 11:27:05;;;;;;;96.40;43.88;;;;;;;13.31;50.04;102171.84;5065550;27;97100;-89
2021/11/14 11:29:34;;;;;;;97.50;44.22;;;;;;;13.22;50.58;102184.44;5067401;27;97022;-89
2021/11/14 11:32:01;;;;;;;100.55;44.33;;;;;;;13.28;50.01;102176.31;5068753;27;96951;-89
2021/11/14 11:34:30;;;;;;;100.38;45.85;;;;;;;12.90;51.93;102180.72;5070678;27;99463;-90
2021/11/14 11:37:07;;;;;;;98.00;44.75;;;;;;;12.61;51.76;102177.81;5157715;22;100911;-89
2021/11/14 11:39:53;;;;;;;;;;;;;;;12.83;52.59;102175.56;5042999;28;97271;-89
2021/11/14 11:42:22;;;;;;;105.03;45.70;;;;;;;13.26;50.92;102173.69;5055838;27;100339;-88
2021/11/14 11:44:55;;;;;;;106.95;45.53;;;;;;;12.96;51.69;102175.28;5046226;28;99525;-88
2021/11/14 11:47:32;;;;;;;120.10;52.05;;;;;;;12.78;51.61;102175.69;5140221;22;96059;-87
2021/11/14 11:49:59;;;;;;;101.38;46.08;;;;;;;13.05;52.32;102177.72;5089454;27;97504;-88
2021/11/14 11:52:38;;;;;;;108.38;46.35;;;;;;;13.42;50.35;102180.41;5094197;27;98194;-88
2021/11/14 11:55:21;;;;;;;102.53;47.70;;;;;;;13.29;50.16;102186.03;5099047;27;96714;-87
2021/11/14 11:57:50;;;;;;;109.35;46.75;;;;;;;13.59;49.85;102182.63;5084666;27;98033;-89
2021/11/14 12:00:19;;;;;;;108.75;47.10;;;;;;;13.23;50.65;102188.84;5088292;27;97326;-90
2021/11/14 12:05:29;;;;;;;107.55;47.08;;;;;;;13.11;51.54;102201.47;5086002;27;98621;-88
2021/11/14 12:13:28;;;;;;;107.88;45.80;;;;;;;12.51;53.21;102208.97;5086974;27;98979;-86
2021/11/14 12:16:00;;;;;;;114.33;47.50;;;;;;;12.61;52.71;102214.94;5090063;27;96991;-90
2021/11/14 12:21:25;;;;;;;112.85;47.20;;;;;;;12.51;53.04;102208.97;5087865;27;97097;-87
2021/11/14 12:23:58;;;;;;;112.50;47.35;;;;;;;12.50;54.10;102216.94;5086497;27;98295;-88
2021/11/14 12:27:08;;;;;;;115.10;47.72;;;;;;;12.91;52.44;102216.09;5087464;27;100092;-88
2021/11/14 12:29:57;;;;;;;113.20;47.03;;;;;;;12.94;52.73;102224.81;5089105;27;97271;-89
2021/11/14 12:32:30;;;;;;;123.18;49.17;;;;;;;12.73;53.52;102227.97;5089153;27;96679;-90
2021/11/14 12:35:02;;;;;;;120.90;49.28;;;;;;;12.49;53.75;102220.50;5072115;27;99772;-90
2021/11/14 12:37:29;;;;;;;119.00;49.13;;;;;;;12.68;53.46;102225.38;5088155;27;97979;-89
2021/11/14 12:43:06;;;;;;;112.50;47.10;;;;;;;12.82;52.58;102218.91;5084228;27;97447;-89
2021/11/14 12:45:52;;;;;;;122.75;49.42;;;;;;;12.64;52.95;102226.38;5088403;27;98785;-88
2021/11/14 12:51:13;;;;;;;124.28;49.10;;;;;;;12.61;54.21;102238.81;5079060;27;96997;-90
2021/11/14 12:53:49;;;;;;;115.13;48.55;;;;;;;12.59;53.91;102230.03;5078765;27;96780;-89
2021/11/14 12:56:24;;;;;;;112.30;47.05;;;;;;;12.71;53.40;102228.00;5078520;27;99423;-87
2021/11/14 12:58:52;;;;;;;120.20;48.83;;;;;;;12.90;53.35;102236.44;5082494;27;100118;-87
2021/11/14 13:01:25;;;;;;;117.50;47.40;;;;;;;12.55;53.89;102233.63;5089247;27;96823;-90
2021/11/14 13:03:54;;;;;;;115.00;47.40;;;;;;;12.72;53.66;102237.69;5090909;27;96094;-89
2021/11/14 13:06:24;;;;;;;114.47;48.72;;;;;;;12.90;53.40;102239.06;5066793;27;97746;-88
2021/11/14 13:08:53;;;;;;;119.95;49.45;;;;;;;13.18;52.39;102241.16;5084037;27;98321;-89
2021/11/14 13:11:24;;;;;;;119.20;47.70;;;;;;;13.33;51.74;102232.81;5089877;27;97471;-89
2021/11/14 13:13:54;;;;;;;116.60;48.45;;;;;;;13.23;52.13;102226.00;5085083;27;96653;-90
2021/11/14 13:16:27;;;;;;;114.57;47.95;;;;;;;12.87;52.53;102232.94;5074690;27;101482;-90
2021/11/14 13:18:59;;;;;;;115.10;48.58;;;;;;;12.80;53.41;102231.38;5077192;27;99031;-89
2021/11/14 13:21:35;;;;;;;120.38;47.13;;;;;;;12.69;53.54;102232.44;5080194;27;97393;-89
2021/11/14 13:24:09;;;;;;;111.78;47.45;;;;;;;12.64;53.67;102233.44;5073516;27;97370;-89
2021/11/14 13:26:39;;;;;;;116.55;47.10;;;;;;;12.85;54.04;102225.06;5053880;27;98653;-90
2021/11/14 13:29:13;;;;;;;116.35;48.33;;;;;;;13.18;52.33;102233.19;5078620;27;100376;-89
2021/11/14 13:31:43;;;;;;;113.60;45.88;;;;;;;12.94;52.29;102224.81;5093882;27;96499;-88
2021/11/14 13:34:18;;;;;;;105.80;44.13;;;;;;;13.02;52.68;102227.31;5058233;27;96785;-90
2021/11/14 13:39:41;;;;;;;106.82;45.95;;;;;;;12.87;53.93;102223.22;5088328;27;98785;-88
2021/11/14 13:42:12;;;;;;;109.10;45.92;;;;;;;12.87;52.66;102228.53;5087953;27;97264;-88
2021/11/14 13:44:42;;;;;;;112.05;45.45;;;;;;;13.07;52.97;102231.63;5086793;27;96814;-90
2021/11/14 13:47:13;;;;;;;112.43;46.05;;;;;;;13.31;51.41;102234.66;5091264;27;99028;-90
2021/11/14 13:50:05;;;;;;;107.97;45.47;;;;;;;12.72;52.05;102228.88;5087067;27;99551;-91
2021/11/14 13:52:33;;;;;;;108.47;44.75;;;;;;;12.56;53.67;102228.28;5078762;27;96751;-91
2021/11/14 13:55:02;;;;;;;111.82;44.58;;;;;;;12.50;53.86;102227.53;5081598;27;96839;-89
2021/11/14 13:57:31;;;;;;;116.45;46.22;;;;;;;12.46;54.44;102233.81;5085239;27;99788;-89
2021/11/14 14:00:06;;;;;;;115.47;46.75;;;;;;;12.38;54.56;102233.97;5085901;27;100199;-88
2021/11/14 14:02:34;;;;;;;112.55;45.40;;;;;;;12.54;54.44;102235.41;5067093;27;96571;-90